Time;durP1;ratioP1;P1;durP2;ratioP2;P2;SDS_P1;SDS_P2;PMS_P1;PMS_P2;Temp;Humidity;BMP_temperature;BMP_pressure;BME280_temperature;BME280_humidity;BME280_pressure;Samples;Min_cycle;Max_cycle;Signal;HPM_P1;HPM_P2
2022/03/26 00:01:15;;;;;;;;;64.50;50.25;;;;;;;;5121009;27;46391;-80
2022/03/26 00:03:41;;;;;;;;;63.50;49.75;;;;;;;;5122125;27;46549;-80
2022/03/26 00:06:06;;;;;;;;;64.00;51.00;;;;;;;;5103754;27;45841;-80
2022/03/26 00:08:32;;;;;;;;;60.00;47.50;;;;;;;;5121139;27;45404;-80
2022/03/26 00:10:57;;;;;;;;;63.25;50.00;;;;;;;;5120736;27;46960;-80
2022/03/26 00:13:22;;;;;;;;;62.25;50.00;;;;;;;;5120934;27;47015;-80
2022/03/26 00:15:47;;;;;;;;;59.75;48.75;;;;;;;;5131541;27;45382;-79
2022/03/26 00:18:15;;;;;;;;;57.50;46.75;;;;;;;;5142905;27;45360;-80
2022/03/26 00:20:40;;;;;;;;;58.75;47.75;;;;;;;;5124263;27;46509;-81
2022/03/26 00:23:06;;;;;;;;;64.25;51.25;;;;;;;;5124034;27;47215;-80
2022/03/26 00:25:31;;;;;;;;;62.50;48.00;;;;;;;;5124106;27;45275;-81
2022/03/26 00:27:56;;;;;;;;;60.50;48.00;;;;;;;;5124191;27;45597;-80
2022/03/26 00:30:21;;;;;;;;;62.75;48.00;;;;;;;;5142679;27;45812;-80
2022/03/26 00:32:46;;;;;;;;;62.50;50.25;;;;;;;;5142669;27;46555;-80
2022/03/26 00:35:12;;;;;;;;;57.50;46.50;;;;;;;;5142565;27;45266;-80
2022/03/26 00:37:38;;;;;;;;;60.50;47.25;;;;;;;;5141469;27;45226;-80
2022/03/26 00:40:04;;;;;;;;;59.75;48.25;;;;;;;;5141330;27;45799;-80
2022/03/26 00:42:29;;;;;;;;;61.75;49.75;;;;;;;;5123790;27;47137;-81
2022/03/26 00:44:54;;;;;;;;;60.25;49.25;;;;;;;;5123716;27;45365;-82
2022/03/26 00:47:19;;;;;;;;;62.75;49.75;;;;;;;;5123964;27;45537;-80
2022/03/26 00:49:45;;;;;;;;;63.00;49.50;;;;;;;;5142305;27;45431;-80
2022/03/26 00:52:10;;;;;;;;;59.50;48.00;;;;;;;;5140793;27;47013;-80
2022/03/26 00:54:35;;;;;;;;;63.25;49.50;;;;;;;;5123463;27;46034;-80
2022/03/26 00:57:00;;;;;;;;;63.75;50.50;;;;;;;;5124032;27;45331;-80
2022/03/26 00:59:26;;;;;;;;;62.75;49.75;;;;;;;;5123400;27;45879;-81
2022/03/26 01:01:51;;;;;;;;;62.75;49.75;;;;;;;;5142216;27;45411;-81
2022/03/26 01:04:16;;;;;;;;;66.00;51.00;;;;;;;;5122915;27;45318;-80
2022/03/26 01:06:42;;;;;;;;;62.25;49.00;;;;;;;;5123432;27;45414;-81
2022/03/26 01:09:07;;;;;;;;;62.50;50.00;;;;;;;;5142083;27;45357;-80
2022/03/26 01:11:32;;;;;;;;;63.75;50.25;;;;;;;;5123120;27;46938;-80
2022/03/26 01:13:58;;;;;;;;;63.50;49.50;;;;;;;;5123385;27;45456;-80
2022/03/26 01:16:24;;;;;;;;;59.25;47.25;;;;;;;;5107595;27;45350;-81
2022/03/26 01:18:49;;;;;;;;;61.25;47.75;;;;;;;;5102498;27;46854;-80
2022/03/26 01:21:14;;;;;;;;;65.00;49.50;;;;;;;;5102357;27;48548;-80
2022/03/26 01:23:40;;;;;;;;;63.00;50.50;;;;;;;;5121059;27;45196;-80
2022/03/26 01:26:05;;;;;;;;;59.25;46.25;;;;;;;;5119653;27;45291;-81
2022/03/26 01:28:30;;;;;;;;;61.50;48.50;;;;;;;;5120884;27;45470;-80
2022/03/26 01:30:56;;;;;;;;;57.75;47.50;;;;;;;;5119412;27;48115;-80
2022/03/26 01:33:21;;;;;;;;;62.75;50.50;;;;;;;;5120774;27;45286;-80
2022/03/26 01:35:46;;;;;;;;;57.25;47.25;;;;;;;;5119750;27;45352;-81
2022/03/26 01:38:11;;;;;;;;;64.00;49.75;;;;;;;;5120813;27;45312;-80
2022/03/26 01:40:37;;;;;;;;;62.50;48.75;;;;;;;;5121021;27;45774;-80
2022/03/26 01:43:03;;;;;;;;;59.75;49.00;;;;;;;;5120904;27;45408;-80
2022/03/26 01:45:29;;;;;;;;;62.00;50.00;;;;;;;;5102280;27;45267;-80
2022/03/26 01:47:55;;;;;;;;;63.75;51.25;;;;;;;;5102185;27;46060;-80
2022/03/26 01:50:21;;;;;;;;;59.00;47.50;;;;;;;;5101804;27;47229;-81
2022/03/26 01:52:46;;;;;;;;;62.25;50.00;;;;;;;;5120617;27;45280;-81
2022/03/26 01:55:11;;;;;;;;;61.50;48.50;;;;;;;;5120751;27;45308;-80
2022/03/26 01:57:38;;;;;;;;;58.25;47.25;;;;;;;;5119190;27;46123;-80
2022/03/26 02:00:05;;;;;;;;;61.25;47.00;;;;;;;;5101962;27;48486;-80
2022/03/26 02:02:30;;;;;;;;;64.00;48.50;;;;;;;;5102001;27;45304;-81
2022/03/26 02:04:55;;;;;;;;;53.75;42.25;;;;;;;;5120376;27;45243;-80
2022/03/26 02:07:20;;;;;;;;;62.25;49.00;;;;;;;;5118932;27;47292;-80
2022/03/26 02:09:47;;;;;;;;;57.75;47.50;;;;;;;;5119075;27;48511;-80
2022/03/26 02:12:23;;;;;;;;;61.00;48.50;;;;;;;;5120284;27;45291;-80
2022/03/26 02:14:48;;;;;;;;;60.25;48.00;;;;;;;;5122619;27;45303;-80
2022/03/26 02:17:13;;;;;;;;;61.25;49.25;;;;;;;;5124031;27;47037;-80
2022/03/26 02:19:38;;;;;;;;;61.50;48.75;;;;;;;;5125893;27;48618;-81
2022/03/26 02:22:04;;;;;;;;;61.00;48.75;;;;;;;;5126154;27;46205;-81
2022/03/26 02:24:29;;;;;;;;;54.50;45.50;;;;;;;;5126353;27;45419;-80
2022/03/26 02:26:55;;;;;;;;;59.00;48.50;;;;;;;;5144740;27;45476;-80
2022/03/26 02:29:20;;;;;;;;;60.75;48.75;;;;;;;;5144415;27;45474;-80
2022/03/26 02:31:45;;;;;;;;;59.00;48.00;;;;;;;;5125802;27;45487;-80
2022/03/26 02:34:10;;;;;;;;;61.75;47.50;;;;;;;;5144563;27;45332;-80
2022/03/26 02:36:36;;;;;;;;;59.50;48.50;;;;;;;;5125847;27;45822;-80
2022/03/26 02:39:02;;;;;;;;;62.00;49.00;;;;;;;;5144506;27;46399;-80
2022/03/26 02:41:28;;;;;;;;;57.00;47.00;;;;;;;;5144521;27;45304;-80
2022/03/26 02:43:53;;;;;;;;;54.50;45.75;;;;;;;;5125607;27;45316;-80
2022/03/26 02:46:18;;;;;;;;;58.75;48.25;;;;;;;;5142779;27;47040;-80
2022/03/26 02:48:44;;;;;;;;;57.50;45.50;;;;;;;;5144257;27;45651;-80
2022/03/26 02:51:09;;;;;;;;;60.00;47.25;;;;;;;;5125925;27;45740;-80
2022/03/26 02:53:35;;;;;;;;;61.50;49.50;;;;;;;;5125931;27;45416;-80
2022/03/26 02:56:00;;;;;;;;;54.00;45.00;;;;;;;;5125646;27;45975;-80
2022/03/26 02:58:25;;;;;;;;;59.00;45.00;;;;;;;;5144316;27;46109;-80
2022/03/26 03:00:50;;;;;;;;;56.25;46.25;;;;;;;;5125612;27;45636;-80
2022/03/26 03:03:16;;;;;;;;;57.75;45.25;;;;;;;;5144081;27;45290;-80
2022/03/26 03:05:42;;;;;;;;;58.00;48.00;;;;;;;;5125524;27;46189;-80
2022/03/26 03:08:08;;;;;;;;;58.00;46.00;;;;;;;;5143898;27;45375;-81
2022/03/26 03:10:33;;;;;;;;;59.00;48.00;;;;;;;;5144145;27;45349;-80
2022/03/26 03:12:59;;;;;;;;;56.75;45.75;;;;;;;;5144121;27;45310;-80
2022/03/26 03:15:24;;;;;;;;;53.75;44.75;;;;;;;;5117826;27;45458;-80
2022/03/26 03:17:51;;;;;;;;;58.25;46.75;;;;;;;;5123201;27;46587;-80
2022/03/26 03:20:17;;;;;;;;;55.00;45.00;;;;;;;;5104416;27;45286;-81
2022/03/26 03:22:43;;;;;;;;;55.50;45.00;;;;;;;;5121561;27;45295;-80
2022/03/26 03:25:08;;;;;;;;;59.00;45.75;;;;;;;;5104692;27;45773;-81
2022/03/26 03:27:34;;;;;;;;;52.75;43.50;;;;;;;;5104292;27;45360;-81
2022/03/26 03:29:59;;;;;;;;;54.00;42.75;;;;;;;;5122731;27;45417;-80
2022/03/26 03:32:24;;;;;;;;;55.25;42.75;;;;;;;;5121597;27;45261;-80
2022/03/26 03:34:50;;;;;;;;;54.75;45.50;;;;;;;;5104137;27;46851;-80
2022/03/26 03:37:16;;;;;;;;;53.75;43.25;;;;;;;;5122671;27;45637;-81
2022/03/26 03:39:41;;;;;;;;;55.50;46.75;;;;;;;;5122867;27;45187;-81
2022/03/26 03:42:07;;;;;;;;;58.50;47.25;;;;;;;;5121570;27;45375;-81
2022/03/26 03:44:32;;;;;;;;;52.00;43.50;;;;;;;;5121183;27;47442;-80
2022/03/26 03:46:57;;;;;;;;;57.25;44.25;;;;;;;;5120981;27;46942;-80
2022/03/26 03:49:22;;;;;;;;;57.75;47.00;;;;;;;;5121018;27;45244;-81
2022/03/26 03:51:48;;;;;;;;;57.25;45.25;;;;;;;;5103935;27;45605;-81
2022/03/26 03:54:14;;;;;;;;;58.00;46.50;;;;;;;;5122519;27;45276;-81
2022/03/26 03:56:39;;;;;;;;;57.00;46.25;;;;;;;;5121022;27;47363;-80
2022/03/26 03:59:04;;;;;;;;;55.25;45.25;;;;;;;;5122584;27;45426;-81
2022/03/26 04:01:29;;;;;;;;;52.75;44.50;;;;;;;;5122838;27;45259;-81
2022/03/26 04:03:54;;;;;;;;;55.00;44.00;;;;;;;;5120818;27;47285;-81
2022/03/26 04:06:20;;;;;;;;;50.25;42.25;;;;;;;;5122553;27;46408;-80
2022/03/26 04:08:45;;;;;;;;;53.00;44.50;;;;;;;;5122244;27;45364;-81
2022/03/26 04:11:10;;;;;;;;;54.00;42.50;;;;;;;;5120922;27;45388;-80
2022/03/26 04:13:36;;;;;;;;;53.25;43.75;;;;;;;;5122166;27;45355;-80
2022/03/26 04:16:01;;;;;;;;;58.75;45.75;;;;;;;;5134683;27;46159;-80
2022/03/26 04:18:26;;;;;;;;;53.00;43.75;;;;;;;;5124216;27;45995;-80
2022/03/26 04:20:53;;;;;;;;;51.25;42.00;;;;;;;;5141739;27;45400;-80
2022/03/26 04:23:19;;;;;;;;;56.00;46.00;;;;;;;;5124198;27;46456;-80
2022/03/26 04:25:44;;;;;;;;;55.50;45.25;;;;;;;;5124262;27;48097;-80
2022/03/26 04:28:09;;;;;;;;;57.50;44.25;;;;;;;;5141508;27;45822;-80
2022/03/26 04:30:34;;;;;;;;;57.25;46.00;;;;;;;;5142946;27;45231;-80
2022/03/26 04:33:00;;;;;;;;;56.25;45.00;;;;;;;;5142547;27;45437;-80
2022/03/26 04:35:26;;;;;;;;;51.00;41.50;;;;;;;;5141225;27;46885;-80
2022/03/26 04:37:55;;;;;;;;;54.00;43.00;;;;;;;;5123949;27;45697;-80
2022/03/26 04:40:20;;;;;;;;;57.00;45.00;;;;;;;;5123355;27;45346;-80
2022/03/26 04:42:46;;;;;;;;;55.75;45.25;;;;;;;;5142534;27;45466;-81
2022/03/26 04:45:11;;;;;;;;;50.25;41.75;;;;;;;;5142337;27;45652;-81
2022/03/26 04:47:36;;;;;;;;;54.00;43.75;;;;;;;;5142725;27;45368;-81
2022/03/26 04:50:01;;;;;;;;;54.75;42.50;;;;;;;;5141209;27;45552;-80
2022/03/26 04:52:27;;;;;;;;;54.50;44.00;;;;;;;;5142214;27;45277;-81
2022/03/26 04:54:52;;;;;;;;;54.25;42.50;;;;;;;;5142272;27;45475;-81
2022/03/26 04:57:18;;;;;;;;;55.25;46.50;;;;;;;;5123520;27;45374;-80
2022/03/26 04:59:43;;;;;;;;;51.50;42.25;;;;;;;;5123878;27;45318;-81
2022/03/26 05:02:08;;;;;;;;;55.50;43.75;;;;;;;;5142092;27;45398;-80
2022/03/26 05:04:34;;;;;;;;;52.50;42.25;;;;;;;;5141876;27;46166;-81
2022/03/26 05:06:59;;;;;;;;;51.25;42.25;;;;;;;;5123511;27;45376;-80
2022/03/26 05:09:24;;;;;;;;;53.00;43.00;;;;;;;;5140876;27;45261;-82
2022/03/26 05:11:49;;;;;;;;;50.00;41.75;;;;;;;;5123401;27;45896;-80
2022/03/26 05:14:16;;;;;;;;;54.00;45.00;;;;;;;;5142153;27;45275;-81
2022/03/26 05:16:42;;;;;;;;;56.75;44.75;;;;;;;;5123332;27;45380;-80
2022/03/26 05:19:07;;;;;;;;;51.00;41.25;;;;;;;;5121279;27;45221;-81
2022/03/26 05:21:32;;;;;;;;;51.25;42.75;;;;;;;;5121209;27;45244;-80
2022/03/26 05:23:57;;;;;;;;;53.50;43.75;;;;;;;;5119492;27;48143;-79
2022/03/26 05:26:23;;;;;;;;;52.25;42.00;;;;;;;;5119740;27;46141;-80
2022/03/26 05:28:48;;;;;;;;;54.25;42.75;;;;;;;;5119611;27;45318;-80
2022/03/26 05:31:14;;;;;;;;;49.50;41.75;;;;;;;;5120984;27;45213;-80
2022/03/26 05:33:39;;;;;;;;;54.25;43.50;;;;;;;;5094620;27;48165;-80
2022/03/26 05:36:04;;;;;;;;;52.00;42.25;;;;;;;;5116199;27;45534;-80
2022/03/26 05:38:31;;;;;;;;;51.75;40.25;;;;;;;;5121224;27;45347;-82
2022/03/26 05:40:56;;;;;;;;;52.00;42.50;;;;;;;;5102653;27;45672;-82
2022/03/26 05:43:21;;;;;;;;;52.75;43.00;;;;;;;;5101907;27;46968;-80
2022/03/26 05:45:47;;;;;;;;;48.75;41.00;;;;;;;;5120904;27;45391;-81
2022/03/26 05:48:12;;;;;;;;;55.75;45.00;;;;;;;;5102205;27;45302;-80
2022/03/26 05:50:37;;;;;;;;;52.25;41.50;;;;;;;;5101534;27;45855;-80
2022/03/26 05:53:03;;;;;;;;;50.25;41.25;;;;;;;;5101408;27;47157;-80
2022/03/26 05:55:28;;;;;;;;;53.75;44.25;;;;;;;;5120621;27;45402;-80
2022/03/26 05:57:53;;;;;;;;;50.25;41.50;;;;;;;;5102296;27;45303;-80
2022/03/26 06:00:19;;;;;;;;;50.25;38.75;;;;;;;;5101585;27;46523;-80
2022/03/26 06:02:44;;;;;;;;;55.25;43.25;;;;;;;;5120713;27;46397;-80
2022/03/26 06:05:09;;;;;;;;;47.00;39.25;;;;;;;;5101959;27;45235;-80
2022/03/26 06:07:35;;;;;;;;;51.25;41.25;;;;;;;;5120292;27;45346;-81
2022/03/26 06:10:00;;;;;;;;;49.25;40.25;;;;;;;;5102102;27;45623;-85
2022/03/26 06:12:26;;;;;;;;;46.75;38.50;;;;;;;;5124767;27;48606;-84
2022/03/26 06:14:51;;;;;;;;;57.00;45.50;;;;;;;;5127089;27;45265;-84
2022/03/26 06:17:16;;;;;;;;;49.75;40.50;;;;;;;;5144175;27;45160;-86
2022/03/26 06:19:42;;;;;;;;;52.25;41.25;;;;;;;;5126556;27;46915;-85
2022/03/26 06:22:08;;;;;;;;;47.00;37.25;;;;;;;;5122996;27;47257;-85
2022/03/26 06:24:33;;;;;;;;;51.00;42.75;;;;;;;;5122831;27;45297;-86
2022/03/26 06:26:58;;;;;;;;;48.75;41.00;;;;;;;;5142105;27;45313;-86
2022/03/26 06:29:23;;;;;;;;;53.00;43.25;;;;;;;;5122321;27;46418;-86
2022/03/26 06:31:49;;;;;;;;;49.25;42.00;;;;;;;;5122699;27;47330;-86
2022/03/26 06:34:14;;;;;;;;;49.75;38.50;;;;;;;;5139991;27;45337;-84
2022/03/26 06:36:40;;;;;;;;;55.00;45.00;;;;;;;;5125130;27;45541;-85
2022/03/26 06:39:09;;;;;;;;;48.50;39.00;;;;;;;;5122427;27;46750;-83
2022/03/26 06:41:38;;;;;;;;;54.50;45.75;;;;;;;;5141306;27;45716;-83
2022/03/26 06:44:04;;;;;;;;;49.75;41.25;;;;;;;;5122361;27;45361;-83
2022/03/26 06:46:29;;;;;;;;;56.75;43.75;;;;;;;;5126344;27;45506;-84
2022/03/26 06:48:54;;;;;;;;;50.50;41.50;;;;;;;;5125596;27;46220;-84
2022/03/26 06:51:20;;;;;;;;;51.25;42.75;;;;;;;;5144656;27;46099;-83
2022/03/26 06:53:46;;;;;;;;;52.00;44.25;;;;;;;;5124565;27;45434;-84
2022/03/26 06:56:11;;;;;;;;;52.75;41.00;;;;;;;;5141072;27;45461;-85
2022/03/26 06:58:36;;;;;;;;;53.25;44.00;;;;;;;;5124512;27;46781;-84
2022/03/26 07:01:02;;;;;;;;;50.25;41.00;;;;;;;;5125148;27;47046;-86
2022/03/26 07:03:27;;;;;;;;;49.75;40.50;;;;;;;;5126602;27;45308;-84
2022/03/26 07:05:53;;;;;;;;;52.50;41.50;;;;;;;;5146671;27;45316;-84
2022/03/26 07:08:18;;;;;;;;;49.25;40.50;;;;;;;;5132142;27;45754;-85
2022/03/26 07:10:46;;;;;;;;;50.75;41.00;;;;;;;;5133839;27;47181;-84
2022/03/26 07:13:12;;;;;;;;;51.00;41.00;;;;;;;;5152404;27;45598;-83
2022/03/26 07:15:38;;;;;;;;;49.25;41.50;;;;;;;;5121591;27;45344;-84
2022/03/26 07:18:03;;;;;;;;;52.75;43.00;;;;;;;;5117497;27;45581;-79
2022/03/26 07:20:29;;;;;;;;;51.50;42.00;;;;;;;;5113720;27;47188;-84
2022/03/26 07:22:54;;;;;;;;;52.25;42.50;;;;;;;;5128098;27;45544;-81
2022/03/26 07:25:19;;;;;;;;;51.75;40.50;;;;;;;;5106468;27;45679;-83
2022/03/26 07:27:44;;;;;;;;;56.25;46.00;;;;;;;;5110627;27;46263;-83
2022/03/26 07:30:10;;;;;;;;;53.50;43.25;;;;;;;;5104972;27;47247;-83
2022/03/26 07:32:35;;;;;;;;;49.25;40.00;;;;;;;;5124760;27;45334;-84
2022/03/26 07:35:01;;;;;;;;;55.50;43.75;;;;;;;;5104663;27;45314;-88
2022/03/26 07:37:26;;;;;;;;;48.50;41.00;;;;;;;;5123247;27;45316;-84
2022/03/26 07:39:51;;;;;;;;;48.50;41.00;;;;;;;;5123710;27;45464;-84
2022/03/26 07:42:17;;;;;;;;;51.75;42.75;;;;;;;;5104850;27;45349;-85
2022/03/26 07:44:42;;;;;;;;;50.25;40.50;;;;;;;;5104566;27;45369;-86
2022/03/26 07:47:07;;;;;;;;;53.75;42.50;;;;;;;;5123008;27;45504;-86
2022/03/26 07:49:32;;;;;;;;;53.00;43.25;;;;;;;;5123532;27;46299;-83
2022/03/26 07:51:57;;;;;;;;;51.00;41.50;;;;;;;;5125370;27;45324;-85
2022/03/26 07:54:23;;;;;;;;;50.25;41.00;;;;;;;;5126009;27;45324;-83
2022/03/26 07:56:48;;;;;;;;;51.25;42.50;;;;;;;;5127669;27;45430;-81
2022/03/26 07:59:13;;;;;;;;;51.75;43.25;;;;;;;;5108072;27;45686;-82
2022/03/26 08:01:39;;;;;;;;;47.75;39.00;;;;;;;;5105932;27;45351;-84
2022/03/26 08:04:04;;;;;;;;;50.50;41.25;;;;;;;;5094235;27;45445;-82
2022/03/26 08:06:29;;;;;;;;;52.00;42.00;;;;;;;;5122390;27;45218;-83
2022/03/26 08:08:54;;;;;;;;;45.50;36.75;;;;;;;;5104761;27;47050;-81
2022/03/26 08:11:20;;;;;;;;;54.00;44.00;;;;;;;;5103930;27;45246;-82
2022/03/26 08:13:45;;;;;;;;;52.75;42.50;;;;;;;;5120127;27;45233;-82
2022/03/26 08:16:10;;;;;;;;;50.00;40.00;;;;;;;;5137945;27;45131;-82
2022/03/26 08:18:35;;;;;;;;;52.75;42.50;;;;;;;;5143894;27;45336;-82
2022/03/26 08:21:01;;;;;;;;;50.75;41.50;;;;;;;;5125986;27;45251;-83
2022/03/26 08:23:26;;;;;;;;;53.50;41.75;;;;;;;;5143342;27;45231;-82
2022/03/26 08:28:36;;;;;;;;;54.00;42.75;;;;;;;;5146477;27;45275;-82
2022/03/26 08:31:02;;;;;;;;;49.75;40.75;;;;;;;;5145997;27;45225;-83
2022/03/26 08:33:27;;;;;;;;;53.25;42.25;;;;;;;;5145666;27;45209;-81
2022/03/26 08:35:52;;;;;;;;;53.00;43.00;;;;;;;;5134587;27;47180;-83
2022/03/26 08:38:17;;;;;;;;;53.75;42.00;;;;;;;;5132331;27;48361;-84
2022/03/26 08:40:43;;;;;;;;;50.00;40.00;;;;;;;;5152399;27;45227;-82
2022/03/26 08:43:08;;;;;;;;;53.25;43.75;;;;;;;;5125613;27;45350;-81
2022/03/26 08:45:35;;;;;;;;;53.75;43.75;;;;;;;;5101202;27;45638;-81
2022/03/26 08:48:00;;;;;;;;;51.50;42.50;;;;;;;;5106648;27;45389;-83
2022/03/26 08:50:28;;;;;;;;;48.75;40.50;;;;;;;;5101604;27;45565;-85
2022/03/26 08:52:53;;;;;;;;;51.50;41.75;;;;;;;;5105421;27;45408;-84
2022/03/26 08:55:19;;;;;;;;;53.00;43.50;;;;;;;;5104073;27;47120;-80
2022/03/26 08:57:44;;;;;;;;;42.75;36.75;;;;;;;;5109791;27;47042;-80
2022/03/26 09:00:11;;;;;;;;;52.75;43.50;;;;;;;;5116231;27;45176;-79
2022/03/26 09:02:37;;;;;;;;;50.00;42.25;;;;;;;;5112872;27;45245;-80
2022/03/26 09:05:04;;;;;;;;;50.50;41.50;;;;;;;;5110240;27;46685;-81
2022/03/26 09:07:29;;;;;;;;;55.00;43.25;;;;;;;;5096489;27;45268;-82
2022/03/26 09:09:54;;;;;;;;;55.25;43.75;;;;;;;;5103974;27;45345;-81
2022/03/26 09:12:19;;;;;;;;;50.75;42.25;;;;;;;;5102817;27;45554;-81
2022/03/26 09:14:45;;;;;;;;;48.75;41.00;;;;;;;;5104794;27;45843;-80
2022/03/26 09:17:10;;;;;;;;;53.00;42.75;;;;;;;;5115020;27;46161;-80
2022/03/26 09:19:36;;;;;;;;;50.50;41.25;;;;;;;;5109556;27;45620;-80
2022/03/26 09:22:01;;;;;;;;;52.25;42.25;;;;;;;;5112041;27;45226;-80
2022/03/26 09:24:26;;;;;;;;;54.75;43.75;;;;;;;;5111363;27;45352;-82
2022/03/26 09:26:51;;;;;;;;;46.50;39.00;;;;;;;;5106338;27;46266;-80
2022/03/26 09:29:17;;;;;;;;;57.00;45.25;;;;;;;;5108398;27;45891;-81
2022/03/26 09:31:42;;;;;;;;;57.75;46.00;;;;;;;;5108411;27;45503;-81
2022/03/26 09:34:07;;;;;;;;;51.50;42.50;;;;;;;;5101291;27;45468;-83
2022/03/26 09:36:33;;;;;;;;;53.75;44.00;;;;;;;;5101105;27;47451;-80
2022/03/26 09:38:58;;;;;;;;;54.00;41.50;;;;;;;;5097525;27;45370;-83
2022/03/26 09:41:23;;;;;;;;;56.00;44.25;;;;;;;;5099867;27;45477;-82
2022/03/26 09:43:49;;;;;;;;;53.00;42.50;;;;;;;;5103734;27;45540;-82
2022/03/26 09:46:14;;;;;;;;;53.25;43.25;;;;;;;;5115688;27;47442;-84
2022/03/26 09:48:40;;;;;;;;;52.25;42.50;;;;;;;;5097561;27;45316;-82
2022/03/26 09:51:07;;;;;;;;;53.25;43.00;;;;;;;;5096795;27;45375;-83
2022/03/26 09:53:33;;;;;;;;;53.00;43.00;;;;;;;;5099514;27;45537;-82
2022/03/26 09:55:59;;;;;;;;;55.50;44.75;;;;;;;;5098588;27;46893;-86
2022/03/26 09:58:24;;;;;;;;;50.75;42.25;;;;;;;;5098455;27;45251;-85
2022/03/26 10:00:49;;;;;;;;;53.50;43.25;;;;;;;;5099267;27;45433;-85
2022/03/26 10:03:16;;;;;;;;;55.25;43.25;;;;;;;;5094838;27;46185;-84
2022/03/26 10:05:41;;;;;;;;;54.25;43.00;;;;;;;;5099487;27;46574;-83
2022/03/26 10:08:14;;;;;;;;;51.00;42.50;;;;;;;;5102087;27;45758;-84
2022/03/26 10:10:43;;;;;;;;;51.25;42.25;;;;;;;;5100751;27;45370;-85
2022/03/26 10:13:09;;;;;;;;;55.00;44.50;;;;;;;;5101851;27;45336;-79
2022/03/26 10:15:34;;;;;;;;;51.00;42.25;;;;;;;;5108847;27;48218;-84
2022/03/26 10:18:08;;;;;;;;;52.00;43.00;;;;;;;;5120956;27;45374;-85
2022/03/26 10:20:33;;;;;;;;;53.50;44.00;;;;;;;;5122157;27;45387;-79
2022/03/26 10:22:58;;;;;;;;;49.50;41.25;;;;;;;;5122344;27;45448;-81
2022/03/26 10:25:23;;;;;;;;;52.75;43.00;;;;;;;;5120119;27;48273;-80
2022/03/26 10:27:49;;;;;;;;;51.00;42.50;;;;;;;;5118823;27;45405;-81
2022/03/26 10:30:15;;;;;;;;;53.50;43.25;;;;;;;;5118853;27;45428;-80
2022/03/26 10:32:49;;;;;;;;;54.00;43.50;;;;;;;;5096495;27;45476;-79
2022/03/26 10:35:22;;;;;;;;;56.50;44.50;;;;;;;;5097046;27;48106;-79
2022/03/26 10:37:55;;;;;;;;;48.75;40.50;;;;;;;;5100730;27;45750;-82
2022/03/26 10:40:22;;;;;;;;;52.25;44.00;;;;;;;;5102953;27;45478;-84
2022/03/26 10:42:58;;;;;;;;;53.00;42.50;;;;;;;;5103756;27;46111;-82
2022/03/26 10:45:24;;;;;;;;;56.75;46.00;;;;;;;;5099024;27;48101;-81
2022/03/26 10:47:52;;;;;;;;;56.25;44.75;;;;;;;;5081563;28;45340;-81
2022/03/26 10:50:18;;;;;;;;;53.25;44.00;;;;;;;;5082940;27;45285;-83
2022/03/26 10:52:43;;;;;;;;;55.75;44.75;;;;;;;;5082491;27;45439;-83
2022/03/26 10:55:18;;;;;;;;;43.75;37.00;;;;;;;;5083489;28;46315;-81
2022/03/26 10:57:44;;;;;;;;;52.50;42.00;;;;;;;;5082512;27;45330;-80
2022/03/26 11:00:10;;;;;;;;;54.00;43.00;;;;;;;;5082096;28;45431;-83
2022/03/26 11:02:36;;;;;;;;;57.75;46.00;;;;;;;;5082433;27;45595;-83
2022/03/26 11:05:01;;;;;;;;;60.00;45.25;;;;;;;;5082456;27;45563;-78
2022/03/26 11:07:26;;;;;;;;;53.25;44.00;;;;;;;;5080784;28;45326;-80
2022/03/26 11:09:52;;;;;;;;;56.50;44.50;;;;;;;;5076088;28;45314;-80
2022/03/26 11:12:18;;;;;;;;;54.25;45.00;;;;;;;;5083679;27;45596;-75
2022/03/26 11:14:45;;;;;;;;;55.00;43.75;;;;;;;;5084861;27;47169;-82
2022/03/26 11:17:29;;;;;;;;;56.25;45.00;;;;;;;;5106047;27;45329;-81
2022/03/26 11:19:57;;;;;;;;;53.75;44.75;;;;;;;;5104239;27;45350;-82
2022/03/26 11:22:41;;;;;;;;;53.50;41.00;;;;;;;;5107650;27;45336;-85
2022/03/26 11:25:11;;;;;;;;;51.75;42.00;;;;;;;;5109596;27;45388;-83
2022/03/26 11:27:52;;;;;;;;;59.00;46.25;;;;;;;;5108947;27;45347;-83
2022/03/26 11:30:19;;;;;;;;;52.00;43.25;;;;;;;;5112968;27;45336;-87
2022/03/26 11:32:45;;;;;;;;;54.75;44.75;;;;;;;;5111524;27;46715;-84
2022/03/26 11:35:14;;;;;;;;;55.25;44.00;;;;;;;;5113226;27;46063;-85
2022/03/26 11:37:56;;;;;;;;;45.00;38.00;;;;;;;;5107949;27;45234;-80
2022/03/26 11:40:42;;;;;;;;;54.25;43.00;;;;;;;;5108464;27;45321;-87
2022/03/26 11:43:08;;;;;;;;;56.00;44.75;;;;;;;;5107431;27;45323;-84
2022/03/26 11:51:25;;;;;;;;;47.75;40.00;;;;;;;;5129329;27;45680;-80
2022/03/26 11:53:57;;;;;;;;;53.75;43.00;;;;;;;;5121171;27;45498;-81
2022/03/26 11:56:24;;;;;;;;;46.00;38.00;;;;;;;;5123870;27;46321;-77
2022/03/26 11:59:08;;;;;;;;;58.00;46.00;;;;;;;;5123051;27;45289;-79
2022/03/26 12:01:37;;;;;;;;;51.50;42.75;;;;;;;;5123614;27;45408;-82
2022/03/26 12:04:10;;;;;;;;;52.25;42.75;;;;;;;;5097932;27;47299;-81
2022/03/26 12:06:44;;;;;;;;;53.50;44.50;;;;;;;;5121206;27;45258;-85
2022/03/26 12:09:29;;;;;;;;;54.75;44.50;;;;;;;;5120445;27;45525;-81
2022/03/26 12:12:10;;;;;;;;;57.00;46.00;;;;;;;;5122672;27;45340;-81
2022/03/26 12:14:55;;;;;;;;;50.50;41.75;;;;;;;;5122577;27;45481;-82
2022/03/26 12:17:39;;;;;;;;;56.00;46.00;;;;;;;;5143283;27;46297;-81
2022/03/26 12:20:25;;;;;;;;;52.50;42.50;;;;;;;;5144263;27;45160;-81
2022/03/26 12:23:11;;;;;;;;;57.00;44.75;;;;;;;;5126581;27;45524;-79
2022/03/26 12:25:36;;;;;;;;;48.25;40.75;;;;;;;;5128283;27;45376;-82
2022/03/26 12:28:02;;;;;;;;;53.00;43.00;;;;;;;;5142927;27;45320;-82
2022/03/26 12:30:27;;;;;;;;;55.00;43.50;;;;;;;;5143055;27;45389;-80
2022/03/26 12:32:52;;;;;;;;;52.75;43.00;;;;;;;;5141607;27;45439;-81
2022/03/26 12:35:18;;;;;;;;;53.00;43.00;;;;;;;;5143247;27;45372;-80
2022/03/26 12:37:48;;;;;;;;;46.75;39.00;;;;;;;;5142789;27;45266;-83
2022/03/26 12:40:13;;;;;;;;;49.50;41.00;;;;;;;;5124084;27;45640;-79
2022/03/26 12:42:38;;;;;;;;;50.75;42.25;;;;;;;;5124571;27;45285;-78
2022/03/26 12:45:16;;;;;;;;;48.75;40.75;;;;;;;;5142887;27;45203;-80
2022/03/26 12:47:46;;;;;;;;;51.00;41.50;;;;;;;;5124190;27;48091;-81
2022/03/26 12:50:12;;;;;;;;;49.25;40.75;;;;;;;;5142663;27;45242;-80
2022/03/26 12:52:37;;;;;;;;;54.00;43.25;;;;;;;;5142563;27;45351;-79
2022/03/26 12:55:03;;;;;;;;;50.50;42.50;;;;;;;;5096272;27;46923;-77
2022/03/26 13:00:12;;;;;;;;;53.50;42.50;;;;;;;;5117549;27;45210;-78
2022/03/26 13:02:37;;;;;;;;;44.25;37.25;;;;;;;;5102111;27;45304;-79
2022/03/26 13:05:06;;;;;;;;;53.25;42.00;;;;;;;;5102317;27;45936;-77
2022/03/26 13:07:35;;;;;;;;;50.00;40.75;;;;;;;;5121198;27;46626;-78
2022/03/26 13:10:01;;;;;;;;;53.00;43.25;;;;;;;;5102554;27;45996;-78
2022/03/26 13:12:28;;;;;;;;;47.00;39.75;;;;;;;;5121285;27;45500;-78
2022/03/26 13:14:53;;;;;;;;;47.25;39.75;;;;;;;;5123566;27;45453;-77
2022/03/26 13:17:20;;;;;;;;;53.50;44.50;;;;;;;;5124854;27;45354;-79
2022/03/26 13:19:45;;;;;;;;;50.50;41.00;;;;;;;;5120951;27;45407;-78
2022/03/26 13:22:14;;;;;;;;;47.25;39.75;;;;;;;;5119517;27;45444;-79
2022/03/26 13:24:48;;;;;;;;;51.75;42.00;;;;;;;;5121115;27;45407;-79
2022/03/26 13:27:16;;;;;;;;;47.75;40.25;;;;;;;;5121020;27;46301;-78
2022/03/26 13:29:41;;;;;;;;;49.75;40.50;;;;;;;;5118919;27;45366;-78
2022/03/26 13:32:09;;;;;;;;;51.75;43.75;;;;;;;;5101261;27;45318;-80
2022/03/26 13:34:35;;;;;;;;;47.75;40.75;;;;;;;;5119139;27;46379;-79
2022/03/26 13:37:08;;;;;;;;;49.75;40.00;;;;;;;;5119118;27;47675;-78
2022/03/26 13:39:33;;;;;;;;;50.50;40.75;;;;;;;;5120570;27;45316;-78
2022/03/26 13:42:07;;;;;;;;;53.00;43.75;;;;;;;;5121011;27;45467;-77
2022/03/26 13:44:32;;;;;;;;;50.00;41.25;;;;;;;;5120987;27;45274;-80
2022/03/26 13:46:59;;;;;;;;;50.25;42.25;;;;;;;;5120735;27;46229;-80
2022/03/26 13:49:25;;;;;;;;;47.25;38.75;;;;;;;;5102045;27;45397;-78
2022/03/26 13:51:50;;;;;;;;;47.75;40.00;;;;;;;;5102189;27;45359;-81
2022/03/26 13:54:19;;;;;;;;;46.00;37.00;;;;;;;;5120706;27;45369;-80
2022/03/26 13:56:50;;;;;;;;;51.25;42.00;;;;;;;;5120885;27;45385;-80
2022/03/26 13:59:15;;;;;;;;;49.50;40.75;;;;;;;;5121893;27;45369;-79
2022/03/26 14:01:41;;;;;;;;;48.50;38.50;;;;;;;;5121328;27;45483;-79
2022/03/26 14:04:07;;;;;;;;;48.67;40.33;;;;;;;;5121468;27;45485;-81
2022/03/26 14:06:36;;;;;;;;;48.00;39.75;;;;;;;;5120770;27;45329;-81
2022/03/26 14:09:02;;;;;;;;;46.00;39.50;;;;;;;;5120811;27;45261;-78
2022/03/26 14:11:28;;;;;;;;;46.25;38.25;;;;;;;;5102024;27;45311;-79
2022/03/26 14:13:53;;;;;;;;;50.50;42.75;;;;;;;;5101037;27;45890;-77
2022/03/26 14:16:18;;;;;;;;;46.33;38.33;;;;;;;;5135306;27;45263;-81
2022/03/26 14:18:43;;;;;;;;;47.33;39.00;;;;;;;;5122472;27;45707;-80
2022/03/26 14:21:09;;;;;;;;;47.67;39.33;;;;;;;;5142152;27;45694;-82
2022/03/26 14:23:34;;;;;;;;;45.67;39.00;;;;;;;;5136519;27;45523;-81